createdAt,value
2018-05-15T17:31:01.420Z,5.93
2018-05-15T17:33:33.001Z,17.77
2018-05-15T17:36:03.725Z,8.03
2018-05-15T17:38:31.562Z,5.67
2018-05-15T17:40:59.935Z,5.80
2018-05-15T17:43:28.115Z,5.47
2018-05-15T17:45:56.509Z,6.43
2018-05-15T17:48:26.418Z,7.60
2018-05-15T17:50:55.365Z,7.53
2018-05-15T17:53:27.993Z,7.93
2018-05-15T17:55:58.428Z,5.27
2018-05-15T17:58:26.959Z,5.60
2018-05-15T18:00:55.251Z,10.83
2018-05-15T18:03:23.440Z,5.87
2018-05-15T18:05:52.753Z,9.70
2018-05-15T18:08:21.156Z,5.80
2018-05-15T18:10:49.740Z,8.00
2018-05-15T18:13:18.039Z,10.53
2018-05-15T18:15:46.584Z,6.67
2018-05-15T18:18:15.571Z,9.53
2018-05-15T18:20:43.899Z,6.47
2018-05-15T18:23:12.907Z,7.93
2018-05-15T18:25:41.117Z,9.30
2018-05-15T18:28:09.449Z,8.03
2018-05-15T18:30:38.032Z,7.40
2018-05-15T18:33:08.546Z,10.70
2018-05-15T18:35:36.869Z,6.53
2018-05-15T18:38:05.433Z,8.23
2018-05-15T18:40:33.596Z,8.97
2018-05-15T18:43:01.693Z,9.90
2018-05-15T18:45:29.859Z,6.97
2018-05-15T18:48:02.636Z,5.87
2018-05-15T18:50:30.374Z,8.90
2018-05-15T18:52:59.055Z,10.63
2018-05-15T18:55:27.901Z,7.33
2018-05-15T18:57:55.796Z,6.67
2018-05-15T19:00:27.254Z,8.90
2018-05-15T19:02:58.845Z,9.30
2018-05-15T19:05:26.891Z,10.63
2018-05-15T19:07:56.820Z,7.70
2018-05-15T19:10:25.939Z,10.30
2018-05-15T19:12:54.217Z,7.40
2018-05-15T19:15:21.944Z,10.17
2018-05-15T19:17:52.719Z,7.70
2018-05-15T19:20:22.314Z,6.70
2018-05-15T19:22:50.695Z,8.43
2018-05-15T19:25:21.933Z,11.20
2018-05-15T19:27:53.806Z,9.43
2018-05-15T19:30:22.585Z,7.73
2018-05-15T19:32:56.701Z,7.87
2018-05-15T19:35:45.453Z,11.10
2018-05-15T19:38:13.814Z,8.27
2018-05-15T19:40:42.975Z,7.37
2018-05-15T19:43:10.555Z,6.57
2018-05-15T19:45:38.245Z,6.60
2018-05-15T19:48:06.109Z,12.07
2018-05-15T19:50:33.752Z,7.27
2018-05-15T19:53:01.409Z,9.27
2018-05-15T19:55:29.050Z,6.80
2018-05-15T19:57:56.601Z,8.90
2018-05-15T20:00:24.100Z,10.40
2018-05-15T20:02:51.725Z,8.87
2018-05-15T20:05:19.272Z,9.37
2018-05-15T20:07:47.665Z,6.87
2018-05-15T20:10:16.879Z,9.83
2018-05-15T20:12:44.535Z,6.87
2018-05-15T20:15:12.089Z,10.50
2018-05-15T20:17:39.627Z,9.17
2018-05-15T20:20:07.211Z,11.67
2018-05-15T20:22:34.755Z,7.90
2018-05-15T20:25:02.396Z,8.63
2018-05-15T20:27:29.975Z,10.63
2018-05-15T20:29:57.531Z,8.67
2018-05-15T20:32:25.136Z,11.03
2018-05-15T20:34:52.736Z,11.23
2018-05-15T20:37:20.250Z,11.77
2018-05-15T20:39:47.787Z,10.73
2018-05-15T20:42:15.368Z,9.70
2018-05-15T20:44:42.886Z,14.37
2018-05-15T20:47:10.653Z,11.30
2018-05-15T20:49:38.202Z,9.90
2018-05-15T20:52:05.844Z,11.17
2018-05-15T20:54:33.372Z,9.37
2018-05-15T20:57:00.971Z,11.17
2018-05-15T20:59:28.563Z,9.60
2018-05-15T21:01:56.262Z,7.63
2018-05-15T21:04:23.778Z,9.97
2018-05-15T21:06:51.410Z,10.40
2018-05-15T21:09:19.068Z,7.90
2018-05-15T21:11:46.643Z,12.13
2018-05-15T21:14:14.300Z,7.70
2018-05-15T21:16:41.946Z,9.07
2018-05-15T21:19:09.510Z,8.10
2018-05-15T21:21:37.053Z,7.93
2018-05-15T21:24:04.612Z,10.37
2018-05-15T21:26:32.200Z,17.47
2018-05-15T21:28:59.799Z,17.13
2018-05-15T21:31:27.425Z,11.17
2018-05-15T21:33:54.964Z,10.47
2018-05-15T21:36:22.555Z,12.03
2018-05-15T21:38:50.131Z,10.43
2018-05-15T21:41:17.831Z,9.93
2018-05-15T21:43:45.418Z,10.00
2018-05-15T21:46:13.202Z,8.13
2018-05-15T21:48:40.816Z,11.07
2018-05-15T21:51:08.339Z,11.83
2018-05-15T21:53:35.958Z,12.20
2018-05-15T21:56:03.528Z,9.80
2018-05-15T21:58:31.026Z,10.27
2018-05-15T22:00:58.722Z,11.53
2018-05-15T22:03:26.332Z,15.43
2018-05-15T22:05:53.936Z,17.13
2018-05-15T22:08:21.444Z,14.67
2018-05-15T22:10:49.095Z,16.33
2018-05-15T22:13:28.516Z,13.27
2018-05-15T22:16:07.887Z,11.83
2018-05-15T22:18:47.319Z,10.70
2018-05-15T22:21:26.723Z,15.47
2018-05-15T22:23:54.573Z,11.70
2018-05-15T22:26:22.246Z,16.50
2018-05-15T22:28:49.794Z,10.47
2018-05-15T22:31:17.408Z,11.63
2018-05-15T22:33:44.932Z,13.90
2018-05-15T22:36:12.569Z,14.57
2018-05-15T22:38:40.187Z,14.20
2018-05-15T22:41:07.804Z,12.63
2018-05-15T22:43:35.330Z,12.93
2018-05-15T22:46:02.900Z,9.60
2018-05-15T22:48:30.399Z,11.33
2018-05-15T22:50:57.928Z,15.50
2018-05-15T22:53:25.477Z,11.67
2018-05-15T22:55:53.051Z,17.67
2018-05-15T22:58:20.595Z,14.03
2018-05-15T23:00:48.102Z,12.50
2018-05-15T23:03:15.808Z,13.03
2018-05-15T23:05:43.360Z,12.57
2018-05-15T23:08:10.871Z,14.27
2018-05-15T23:10:38.462Z,11.97
2018-05-15T23:13:05.975Z,13.70
2018-05-15T23:15:33.529Z,14.47
2018-05-15T23:18:01.074Z,17.07
2018-05-15T23:20:28.637Z,16.77
2018-05-15T23:22:56.134Z,14.90
2018-05-15T23:25:23.659Z,16.30
2018-05-15T23:27:51.201Z,16.67
2018-05-15T23:30:18.741Z,20.80
2018-05-15T23:32:46.318Z,17.50
2018-05-15T23:35:13.841Z,18.30
2018-05-15T23:37:41.350Z,17.33
2018-05-15T23:40:08.880Z,21.33
2018-05-15T23:42:36.432Z,18.80
2018-05-15T23:45:03.945Z,18.33
2018-05-15T23:47:31.448Z,19.30
2018-05-15T23:49:59.011Z,23.93
2018-05-15T23:52:26.544Z,22.20
2018-05-15T23:54:54.036Z,28.37
2018-05-15T23:57:21.585Z,22.33
2018-05-15T23:59:49.115Z,28.77
